Uglich, Russia
Current Conditions -  °F | °C
As of 6:30 PM on Monday 22 Dec 2014 (Local Time) from UUDL Reporting Station
Overcast Overcast  
Wind Chill: 21°   Ceiling: 1900
Heat Index: 28°   Visibility: 6mi
Dew Point: 27°   Wind: 7mph
Humidity: 93%   Direction: 210°SSW
Pressure: 29.38"   Gusts: NA
Location:  57.53°N, 38.33°E
Report Text: UUDL 221530Z 21003MPS 9999 OVC019 M02/M03 Q0995 NOSIG RMKQFE738 23490536
Loading
Personal Weather Stations






























Interactive Weather Map New forecast layout! Learn more

10-Day Weather Forecast

Advertisements
Track Severe Weather on mobile